createdAt,value
2022-10-08T00:01:15.759Z,15.50
2022-10-08T00:03:47.327Z,15.60
2022-10-08T00:06:16.845Z,15.50
2022-10-08T00:08:49.318Z,15.60
2022-10-08T00:11:20.418Z,15.60
2022-10-08T00:13:49.426Z,15.60
2022-10-08T00:16:20.888Z,15.70
2022-10-08T00:18:52.152Z,15.70
2022-10-08T00:21:23.961Z,15.80
2022-10-08T00:23:53.266Z,15.80
2022-10-08T00:26:25.286Z,15.90
2022-10-08T00:28:55.127Z,15.80
2022-10-08T00:31:25.120Z,15.70
2022-10-08T00:33:56.426Z,15.70
2022-10-08T00:36:25.294Z,15.70
2022-10-08T00:38:57.025Z,15.70
2022-10-08T00:41:27.508Z,15.70
2022-10-08T00:43:57.656Z,15.80
2022-10-08T00:46:29.935Z,15.70
2022-10-08T00:49:03.516Z,15.40
2022-10-08T00:51:32.247Z,15.60
2022-10-08T00:54:02.165Z,15.70
2022-10-08T00:56:32.014Z,15.80
2022-10-08T00:58:59.851Z,15.70
2022-10-08T01:01:29.449Z,15.50
2022-10-08T01:03:57.197Z,15.20
2022-10-08T01:06:29.934Z,15.30
2022-10-08T01:09:03.812Z,15.30
2022-10-08T01:11:43.777Z,15.00
2022-10-08T01:14:23.701Z,15.20
2022-10-08T01:16:59.356Z,15.20
2022-10-08T01:19:52.730Z,15.30
2022-10-08T01:22:35.919Z,15.30
2022-10-08T01:25:32.795Z,15.50
2022-10-08T01:28:06.596Z,15.50
2022-10-08T01:30:38.319Z,15.40
2022-10-08T01:33:12.974Z,15.50
2022-10-08T01:35:45.334Z,15.60
2022-10-08T01:38:17.325Z,15.60
2022-10-08T01:40:47.093Z,15.60
2022-10-08T01:43:19.491Z,15.50
2022-10-08T01:45:53.145Z,15.40
2022-10-08T01:48:24.320Z,15.30
2022-10-08T01:50:56.225Z,15.10
2022-10-08T01:53:27.212Z,15.20
2022-10-08T01:55:56.767Z,14.90
2022-10-08T01:58:34.107Z,14.90
2022-10-08T02:01:07.755Z,14.80
2022-10-08T02:03:35.827Z,14.70
2022-10-08T02:06:06.455Z,14.60
2022-10-08T02:08:34.189Z,14.70
2022-10-08T02:11:01.909Z,14.80
2022-10-08T02:13:31.085Z,14.70
2022-10-08T02:16:07.409Z,14.80
2022-10-08T02:18:41.157Z,14.80
2022-10-08T02:21:13.560Z,14.80
2022-10-08T02:23:46.178Z,14.90
2022-10-08T02:26:18.856Z,14.80
2022-10-08T02:28:54.230Z,14.80
2022-10-08T02:31:29.946Z,14.60
2022-10-08T02:34:05.440Z,14.80
2022-10-08T02:36:36.730Z,14.80
2022-10-08T02:39:06.420Z,15.00
2022-10-08T02:41:37.570Z,15.10
2022-10-08T02:44:09.343Z,15.10
2022-10-08T02:46:41.384Z,15.00
2022-10-08T02:49:13.148Z,15.10
2022-10-08T02:51:44.560Z,15.00
2022-10-08T02:54:13.230Z,14.90
2022-10-08T02:56:46.737Z,15.00
2022-10-08T02:59:17.966Z,14.80
2022-10-08T03:01:49.184Z,14.70
2022-10-08T03:04:23.964Z,15.00
2022-10-08T03:06:54.010Z,14.90
2022-10-08T03:09:23.755Z,15.00
2022-10-08T03:11:52.742Z,15.00
2022-10-08T03:14:23.860Z,14.90
2022-10-08T03:16:51.966Z,14.70
2022-10-08T03:19:20.123Z,15.00
2022-10-08T03:21:50.257Z,15.10
2022-10-08T03:24:18.014Z,15.00
2022-10-08T03:26:45.814Z,15.10
2022-10-08T03:29:14.107Z,15.20
2022-10-08T03:31:43.161Z,15.10
2022-10-08T03:34:10.915Z,15.20
2022-10-08T03:36:38.681Z,15.10
2022-10-08T03:39:06.889Z,15.20
2022-10-08T03:41:34.622Z,15.20
2022-10-08T03:44:02.324Z,15.20
2022-10-08T03:46:30.248Z,15.10
2022-10-08T03:48:59.417Z,14.90
2022-10-08T03:51:27.329Z,15.20
2022-10-08T03:53:55.135Z,15.20
2022-10-08T03:56:25.188Z,15.10
2022-10-08T03:58:54.954Z,15.30
2022-10-08T04:01:23.275Z,15.30
2022-10-08T04:03:51.148Z,15.30
2022-10-08T04:06:20.553Z,15.30
2022-10-08T04:08:48.336Z,15.50
2022-10-08T04:11:17.535Z,15.10
2022-10-08T04:13:45.745Z,15.30
2022-10-08T04:16:15.918Z,15.30
2022-10-08T04:18:44.320Z,15.40
2022-10-08T04:21:14.847Z,15.50
2022-10-08T04:23:44.799Z,15.60
2022-10-08T04:26:14.433Z,15.50
2022-10-08T04:28:44.261Z,15.50
2022-10-08T04:31:14.096Z,15.30
2022-10-08T04:33:41.888Z,15.50
2022-10-08T04:36:11.040Z,15.50
2022-10-08T04:38:38.797Z,15.50
2022-10-08T04:41:09.584Z,15.50
2022-10-08T04:43:38.490Z,15.50
2022-10-08T04:46:07.270Z,15.50
2022-10-08T04:48:35.107Z,15.60
2022-10-08T04:51:10.301Z,15.60
2022-10-08T04:53:38.567Z,15.50
2022-10-08T04:56:12.593Z,15.70
2022-10-08T04:58:40.352Z,15.70
2022-10-08T05:01:10.670Z,15.50
2022-10-08T05:03:38.704Z,15.50
2022-10-08T05:06:07.539Z,15.40
2022-10-08T05:08:35.848Z,15.50
2022-10-08T05:11:03.603Z,15.50
2022-10-08T05:13:32.703Z,15.60
2022-10-08T05:16:04.544Z,15.70
2022-10-08T05:18:33.194Z,15.60
2022-10-08T05:21:04.541Z,15.70
2022-10-08T05:23:32.375Z,15.80
2022-10-08T05:26:02.264Z,15.60
2022-10-08T05:28:30.293Z,15.60
2022-10-08T05:31:02.510Z,15.50
2022-10-08T05:33:30.289Z,15.60
2022-10-08T05:35:58.006Z,15.50
2022-10-08T05:38:25.754Z,15.60
2022-10-08T05:40:53.561Z,15.50
2022-10-08T05:43:21.286Z,15.60
2022-10-08T05:45:52.247Z,15.50
2022-10-08T05:48:21.376Z,15.50
2022-10-08T05:50:49.084Z,15.50
2022-10-08T05:53:16.840Z,15.50
2022-10-08T05:55:44.555Z,15.60
2022-10-08T05:58:12.310Z,15.60
2022-10-08T06:00:40.019Z,15.60
2022-10-08T06:03:07.802Z,15.50
2022-10-08T06:05:36.925Z,15.70
2022-10-08T06:08:04.626Z,15.60
2022-10-08T06:10:33.810Z,15.70
2022-10-08T06:13:01.546Z,15.60
2022-10-08T06:15:29.239Z,15.50
2022-10-08T06:17:58.462Z,15.60
2022-10-08T06:20:31.030Z,15.50
2022-10-08T06:23:01.261Z,15.50
2022-10-08T06:25:28.968Z,15.50
2022-10-08T06:27:56.685Z,15.40
2022-10-08T06:30:24.531Z,15.50
2022-10-08T06:32:52.305Z,15.50
2022-10-08T06:35:20.071Z,15.50
2022-10-08T06:37:48.880Z,15.60
2022-10-08T06:40:18.010Z,15.60
2022-10-08T06:42:45.970Z,15.50
2022-10-08T06:45:13.989Z,15.40
2022-10-08T06:47:41.764Z,15.50
2022-10-08T06:50:09.836Z,15.60
2022-10-08T06:52:37.556Z,15.60
2022-10-08T06:55:06.009Z,15.60
2022-10-08T06:57:35.049Z,15.70
2022-10-08T07:00:02.772Z,15.70
2022-10-08T07:02:30.944Z,15.40
2022-10-08T07:04:58.711Z,15.50
2022-10-08T07:07:26.393Z,15.60
2022-10-08T07:09:54.111Z,15.70
2022-10-08T07:12:21.820Z,15.80
2022-10-08T07:14:50.931Z,15.80
2022-10-08T07:17:18.715Z,15.80
2022-10-08T07:19:49.833Z,15.80
2022-10-08T07:22:17.577Z,15.70
2022-10-08T07:24:45.291Z,15.70
2022-10-08T07:27:12.996Z,15.60
2022-10-08T07:29:40.929Z,15.80
2022-10-08T07:32:10.101Z,15.60
2022-10-08T07:34:37.868Z,15.90
2022-10-08T07:37:05.609Z,15.70
2022-10-08T07:39:33.299Z,15.50
2022-10-08T07:42:01.058Z,15.60
2022-10-08T07:44:28.888Z,15.50
2022-10-08T07:46:56.911Z,15.60
2022-10-08T07:49:26.068Z,15.70
2022-10-08T07:51:53.973Z,15.90
2022-10-08T07:54:21.849Z,15.80
2022-10-08T07:56:49.624Z,15.80
2022-10-08T07:59:17.409Z,15.90
2022-10-08T08:01:45.465Z,15.90
2022-10-08T08:04:14.655Z,16.00
2022-10-08T08:06:47.531Z,16.10
2022-10-08T08:09:16.512Z,16.20
2022-10-08T08:11:44.254Z,16.10
2022-10-08T08:14:12.002Z,16.10
2022-10-08T08:16:40.282Z,16.00
2022-10-08T08:19:08.276Z,16.10
2022-10-08T08:21:38.162Z,16.10
2022-10-08T08:24:08.918Z,16.30
2022-10-08T08:26:38.933Z,16.10
2022-10-08T08:29:08.435Z,16.20
2022-10-08T08:31:38.309Z,16.20
2022-10-08T08:34:08.548Z,16.30
2022-10-08T08:36:38.693Z,16.30
2022-10-08T08:39:09.907Z,16.40
2022-10-08T08:42:00.208Z,16.30
2022-10-08T08:44:33.124Z,16.50
2022-10-08T08:47:05.294Z,16.60
2022-10-08T08:49:43.015Z,16.70
2022-10-08T08:52:19.788Z,16.80
2022-10-08T08:54:49.984Z,16.80
2022-10-08T08:57:33.383Z,16.90
2022-10-08T09:00:05.943Z,17.00
2022-10-08T09:02:38.584Z,17.10
2022-10-08T09:05:12.016Z,17.00
2022-10-08T09:07:44.928Z,17.00
2022-10-08T09:10:19.857Z,17.20
2022-10-08T09:12:49.230Z,17.40
2022-10-08T09:15:20.285Z,17.50
2022-10-08T09:17:51.662Z,17.50
2022-10-08T09:20:22.437Z,17.80
2022-10-08T09:22:51.519Z,17.90
2022-10-08T09:25:23.084Z,17.80
2022-10-08T09:27:53.946Z,17.70
2022-10-08T09:30:35.013Z,17.90
2022-10-08T09:33:05.934Z,17.90
2022-10-08T09:35:35.480Z,17.90
2022-10-08T09:38:05.812Z,18.10
2022-10-08T09:40:35.370Z,18.20
2022-10-08T09:43:14.810Z,18.30
2022-10-08T09:45:46.972Z,18.20
2022-10-08T09:48:21.023Z,18.40
2022-10-08T09:50:53.987Z,18.50
2022-10-08T09:53:22.751Z,18.60
2022-10-08T09:55:56.047Z,18.70
2022-10-08T09:58:24.631Z,18.80
2022-10-08T10:01:04.862Z,18.90
2022-10-08T10:03:33.484Z,18.80
2022-10-08T10:06:01.648Z,18.80
2022-10-08T10:08:45.874Z,19.00
2022-10-08T10:11:21.541Z,19.10
2022-10-08T10:13:51.324Z,19.00
2022-10-08T10:16:25.053Z,19.10
2022-10-08T10:18:57.826Z,19.10
2022-10-08T10:21:34.497Z,19.30
2022-10-08T10:24:13.241Z,19.00
2022-10-08T10:26:45.019Z,18.90
2022-10-08T10:29:18.555Z,19.20
2022-10-08T10:31:50.217Z,19.40
2022-10-08T10:34:21.571Z,19.40
2022-10-08T10:36:52.632Z,19.60
2022-10-08T10:39:31.446Z,19.80
2022-10-08T10:42:08.564Z,19.90
2022-10-08T10:44:49.721Z,19.60
2022-10-08T10:47:21.207Z,19.80
2022-10-08T10:49:50.774Z,19.80
2022-10-08T10:52:42.417Z,19.90
2022-10-08T10:55:21.221Z,19.90
2022-10-08T10:58:13.111Z,20.30
2022-10-08T11:00:49.450Z,20.10
2022-10-08T11:03:25.695Z,20.10
2022-10-08T11:06:01.591Z,20.10
2022-10-08T11:08:39.661Z,19.90
2022-10-08T11:11:18.684Z,19.70
2022-10-08T11:14:03.210Z,20.00
2022-10-08T11:16:43.036Z,20.10
2022-10-08T11:19:20.026Z,20.10
2022-10-08T11:21:58.608Z,19.70
2022-10-08T11:24:41.087Z,19.80
2022-10-08T11:27:19.112Z,19.60
2022-10-08T11:29:54.802Z,19.70
2022-10-08T11:32:23.215Z,19.70
2022-10-08T11:34:54.692Z,19.80
2022-10-08T11:37:29.688Z,20.00
2022-10-08T11:40:08.731Z,19.90
2022-10-08T11:42:47.468Z,20.00
2022-10-08T11:45:36.957Z,20.20
2022-10-08T11:48:40.116Z,19.90
2022-10-08T11:51:37.806Z,19.60
2022-10-08T11:54:13.373Z,19.60
2022-10-08T11:56:43.674Z,19.20
2022-10-08T11:59:32.228Z,19.30
2022-10-08T12:02:03.167Z,19.30
2022-10-08T12:04:34.837Z,19.00
2022-10-08T12:07:07.931Z,18.90
2022-10-08T12:10:10.494Z,18.00
2022-10-08T12:13:17.589Z,18.20
2022-10-08T12:16:04.542Z,17.90
2022-10-08T12:18:43.677Z,18.40
2022-10-08T12:21:54.462Z,18.30
2022-10-08T12:24:57.835Z,18.20
2022-10-08T12:27:31.577Z,18.30
2022-10-08T12:30:01.730Z,18.10
2022-10-08T12:32:31.232Z,17.90
2022-10-08T12:35:01.611Z,17.90
2022-10-08T12:37:44.921Z,17.80
2022-10-08T12:40:23.007Z,17.40
2022-10-08T12:42:54.434Z,17.30
2022-10-08T12:45:26.112Z,17.30
2022-10-08T12:48:00.918Z,17.10
2022-10-08T12:50:42.948Z,17.30
2022-10-08T12:53:14.818Z,17.10
2022-10-08T12:55:48.918Z,17.20
2022-10-08T12:58:19.966Z,17.20
2022-10-08T13:00:51.779Z,17.30
2022-10-08T13:03:20.338Z,17.30
2022-10-08T13:05:50.337Z,17.60
2022-10-08T13:08:32.481Z,17.70
2022-10-08T13:11:01.881Z,17.90
2022-10-08T13:13:42.988Z,18.00
2022-10-08T13:16:13.393Z,18.20
2022-10-08T13:18:43.300Z,18.40
2022-10-08T13:21:37.429Z,18.70
2022-10-08T13:24:46.749Z,18.80
2022-10-08T13:27:28.076Z,18.70
2022-10-08T13:29:55.771Z,19.00
2022-10-08T13:32:25.723Z,19.10
2022-10-08T13:34:56.701Z,19.10
2022-10-08T13:37:36.244Z,19.20
2022-10-08T13:40:16.987Z,19.10
2022-10-08T13:42:46.754Z,19.10
2022-10-08T13:45:17.084Z,19.30
2022-10-08T13:47:45.192Z,19.30
2022-10-08T13:50:13.389Z,19.50
2022-10-08T13:52:45.195Z,19.50
2022-10-08T13:55:22.452Z,19.70
2022-10-08T13:57:50.470Z,19.10
2022-10-08T14:00:19.540Z,18.90
2022-10-08T14:02:48.199Z,18.60
2022-10-08T14:05:16.132Z,18.70
2022-10-08T14:07:46.452Z,18.50
2022-10-08T14:10:14.982Z,18.70
2022-10-08T14:12:42.881Z,18.70
2022-10-08T14:15:13.021Z,18.90
2022-10-08T14:17:40.848Z,18.90
2022-10-08T14:20:10.222Z,19.10
2022-10-08T14:22:39.710Z,19.20
2022-10-08T14:25:16.835Z,19.20
2022-10-08T14:27:45.264Z,19.10
2022-10-08T14:30:14.593Z,19.10
2022-10-08T14:32:42.593Z,19.00
2022-10-08T14:35:11.588Z,18.80
2022-10-08T14:37:39.835Z,18.90
2022-10-08T14:40:12.893Z,18.90
2022-10-08T14:42:40.586Z,18.70
2022-10-08T14:45:09.103Z,18.70
2022-10-08T14:47:36.832Z,18.80
2022-10-08T14:50:05.086Z,19.00
2022-10-08T14:52:32.948Z,18.90
2022-10-08T14:55:00.618Z,18.70
2022-10-08T14:57:29.740Z,18.80
2022-10-08T14:59:57.480Z,18.70
2022-10-08T15:02:25.193Z,18.70
2022-10-08T15:04:53.769Z,18.60
2022-10-08T15:07:21.732Z,18.70
2022-10-08T15:09:49.483Z,18.70
2022-10-08T15:12:17.291Z,18.80
2022-10-08T15:14:46.382Z,18.70
2022-10-08T15:17:14.120Z,18.80
2022-10-08T15:19:41.914Z,18.90
2022-10-08T15:22:09.637Z,18.90
2022-10-08T15:24:37.412Z,18.90
2022-10-08T15:27:05.347Z,18.90
2022-10-08T15:29:33.051Z,18.90
2022-10-08T15:32:02.170Z,18.90
2022-10-08T15:34:29.911Z,18.90
2022-10-08T15:36:57.621Z,19.00
2022-10-08T15:39:25.366Z,19.00
2022-10-08T15:41:54.360Z,18.90
2022-10-08T15:44:23.861Z,18.80
2022-10-08T15:46:59.530Z,18.90
2022-10-08T15:49:32.233Z,18.90
2022-10-08T15:52:00.387Z,18.90
2022-10-08T15:54:28.105Z,18.80
2022-10-08T15:56:55.842Z,18.60
2022-10-08T15:59:23.590Z,18.70
2022-10-08T16:01:51.353Z,18.70
2022-10-08T16:04:19.323Z,18.80
2022-10-08T16:06:48.405Z,18.60
2022-10-08T16:09:19.692Z,18.70
2022-10-08T16:11:47.974Z,18.70
2022-10-08T16:14:17.961Z,18.60
2022-10-08T16:16:46.190Z,18.50
2022-10-08T16:19:16.199Z,18.50
2022-10-08T16:21:45.265Z,18.50
2022-10-08T16:24:15.132Z,18.50
2022-10-08T16:26:43.948Z,18.50
2022-10-08T16:29:13.773Z,18.50
2022-10-08T16:31:42.868Z,18.40
2022-10-08T16:34:14.234Z,18.40
2022-10-08T16:36:42.034Z,18.40
2022-10-08T16:39:12.455Z,18.40
2022-10-08T16:41:41.526Z,18.40
2022-10-08T16:44:12.713Z,18.40
2022-10-08T16:46:42.585Z,18.40
2022-10-08T16:49:18.315Z,18.40
2022-10-08T16:51:48.968Z,18.20
2022-10-08T16:54:18.940Z,18.40
2022-10-08T16:56:48.075Z,18.30
2022-10-08T16:59:18.973Z,18.30
2022-10-08T17:01:48.109Z,18.20
2022-10-08T17:04:16.464Z,18.10
2022-10-08T17:06:44.703Z,18.00
2022-10-08T17:09:12.514Z,18.10
2022-10-08T17:11:41.767Z,18.10
2022-10-08T17:14:11.782Z,18.10
2022-10-08T17:16:40.252Z,18.00
2022-10-08T17:19:08.150Z,18.00
2022-10-08T17:21:36.904Z,17.90
2022-10-08T17:24:04.824Z,17.90
2022-10-08T17:26:32.953Z,17.90
2022-10-08T17:29:04.451Z,17.80
2022-10-08T17:31:34.083Z,18.00
2022-10-08T17:34:02.387Z,17.80
2022-10-08T17:36:31.786Z,17.80
2022-10-08T17:39:01.215Z,17.70
2022-10-08T17:41:30.798Z,17.80
2022-10-08T17:44:00.947Z,17.80
2022-10-08T17:46:30.738Z,17.70
2022-10-08T17:49:00.322Z,17.50
2022-10-08T17:51:30.988Z,17.60
2022-10-08T17:54:01.080Z,17.70
2022-10-08T17:56:29.720Z,17.70
2022-10-08T17:58:58.175Z,17.50
2022-10-08T18:01:27.402Z,17.50
2022-10-08T18:03:57.574Z,17.60
2022-10-08T18:06:27.098Z,17.50
2022-10-08T18:08:56.196Z,17.40
2022-10-08T18:11:24.168Z,17.40
2022-10-08T18:13:52.261Z,17.40
2022-10-08T18:16:21.021Z,17.40
2022-10-08T18:18:49.360Z,17.40
2022-10-08T18:21:18.871Z,17.40
2022-10-08T18:23:48.662Z,17.40
2022-10-08T18:26:18.787Z,17.60
2022-10-08T18:28:47.973Z,17.50
2022-10-08T18:31:17.240Z,17.20
2022-10-08T18:33:47.003Z,17.30
2022-10-08T18:36:16.429Z,17.30
2022-10-08T18:38:46.867Z,17.10
2022-10-08T18:41:18.013Z,16.90
2022-10-08T18:43:47.062Z,16.90
2022-10-08T18:46:15.612Z,16.90
2022-10-08T18:48:43.744Z,16.80
2022-10-08T18:51:13.606Z,16.70
2022-10-08T18:53:42.871Z,16.70
2022-10-08T18:56:13.302Z,16.60
2022-10-08T18:58:42.554Z,16.60
2022-10-08T19:01:17.567Z,16.50
2022-10-08T19:03:47.738Z,16.50
2022-10-08T19:06:15.895Z,16.40
2022-10-08T19:08:43.692Z,16.40
2022-10-08T19:11:13.575Z,16.40
2022-10-08T19:13:42.719Z,16.40
2022-10-08T19:16:13.613Z,16.30
2022-10-08T19:18:42.709Z,16.30
2022-10-08T19:21:10.993Z,16.20
2022-10-08T19:23:39.342Z,16.10
2022-10-08T19:26:07.879Z,16.30
2022-10-08T19:28:37.326Z,16.20
2022-10-08T19:31:14.518Z,16.20
2022-10-08T19:33:43.021Z,16.10
2022-10-08T19:36:11.279Z,16.10
2022-10-08T19:38:39.065Z,15.90
2022-10-08T19:41:10.737Z,15.90
2022-10-08T19:43:38.637Z,16.00
2022-10-08T19:46:07.041Z,16.00
2022-10-08T19:48:36.212Z,16.10
2022-10-08T19:51:05.003Z,16.00
2022-10-08T19:53:32.905Z,16.00
2022-10-08T19:56:01.569Z,15.90
2022-10-08T19:58:29.401Z,15.90
2022-10-08T20:01:00.682Z,15.90
2022-10-08T20:03:28.592Z,15.80
2022-10-08T20:05:57.658Z,15.80
2022-10-08T20:08:25.482Z,15.80
2022-10-08T20:10:53.293Z,15.80
2022-10-08T20:13:21.355Z,15.80
2022-10-08T20:15:51.361Z,15.70
2022-10-08T20:18:19.393Z,15.80
2022-10-08T20:20:47.163Z,15.60
2022-10-08T20:23:16.374Z,15.50
2022-10-08T20:25:44.998Z,15.60
2022-10-08T20:28:12.821Z,15.60
2022-10-08T20:30:42.752Z,15.70
2022-10-08T20:33:10.465Z,15.60
2022-10-08T20:35:38.221Z,15.60
2022-10-08T20:38:05.955Z,15.50
2022-10-08T20:40:35.110Z,15.40
2022-10-08T20:43:02.829Z,15.30
2022-10-08T20:45:30.524Z,15.20
2022-10-08T20:47:58.330Z,15.20
2022-10-08T20:50:26.172Z,15.00
2022-10-08T20:52:54.380Z,15.10
2022-10-08T20:55:22.130Z,15.20
2022-10-08T20:57:51.347Z,15.10
2022-10-08T21:00:19.415Z,15.00
2022-10-08T21:02:47.419Z,15.00
2022-10-08T21:05:15.446Z,15.00
2022-10-08T21:07:43.184Z,15.10
2022-10-08T21:10:11.334Z,14.90
2022-10-08T21:12:39.052Z,14.70
2022-10-08T21:15:09.913Z,14.80
2022-10-08T21:17:37.648Z,14.80
2022-10-08T21:20:05.933Z,15.00
2022-10-08T21:22:33.680Z,14.90
2022-10-08T21:25:01.668Z,14.90
2022-10-08T21:27:29.413Z,14.80
2022-10-08T21:29:57.105Z,14.80
2022-10-08T21:32:26.174Z,14.80
2022-10-08T21:34:53.896Z,14.80
2022-10-08T21:37:22.763Z,14.80
2022-10-08T21:39:52.235Z,14.80
2022-10-08T21:42:20.079Z,14.80
2022-10-08T21:44:47.823Z,14.70
2022-10-08T21:47:15.604Z,14.70
2022-10-08T21:49:44.638Z,14.60
2022-10-08T21:52:12.391Z,14.70
2022-10-08T21:54:40.152Z,14.60
2022-10-08T21:57:07.864Z,14.60
2022-10-08T21:59:35.603Z,14.60
2022-10-08T22:02:03.354Z,14.60
2022-10-08T22:04:31.118Z,14.50
2022-10-08T22:07:01.795Z,14.40
2022-10-08T22:09:32.052Z,14.50
2022-10-08T22:12:00.490Z,14.50
2022-10-08T22:14:29.447Z,14.40
2022-10-08T22:16:57.383Z,14.40
2022-10-08T22:19:25.408Z,14.30
2022-10-08T22:21:53.246Z,14.20
2022-10-08T22:24:22.315Z,14.30
2022-10-08T22:26:50.085Z,14.30
2022-10-08T22:29:17.971Z,14.30
2022-10-08T22:31:46.083Z,14.20
2022-10-08T22:34:14.205Z,14.30
2022-10-08T22:36:43.607Z,14.40
2022-10-08T22:39:11.722Z,14.40
2022-10-08T22:41:40.861Z,14.40
2022-10-08T22:44:08.556Z,14.30
2022-10-08T22:46:37.734Z,14.20
2022-10-08T22:49:07.900Z,14.00
2022-10-08T22:51:36.000Z,14.00
2022-10-08T22:54:03.807Z,13.90
2022-10-08T22:56:32.644Z,13.80
2022-10-08T22:59:02.012Z,13.90
2022-10-08T23:01:31.015Z,14.00
2022-10-08T23:03:59.045Z,14.00
2022-10-08T23:06:28.165Z,13.90
2022-10-08T23:08:57.724Z,13.90
2022-10-08T23:11:25.938Z,13.90
2022-10-08T23:13:54.557Z,13.80
2022-10-08T23:16:25.235Z,13.70
2022-10-08T23:18:55.090Z,13.70
2022-10-08T23:21:23.087Z,13.70
2022-10-08T23:23:51.919Z,13.70
2022-10-08T23:26:19.696Z,13.70
2022-10-08T23:28:51.636Z,13.70
2022-10-08T23:31:21.503Z,13.60
2022-10-08T23:33:52.031Z,13.60
2022-10-08T23:36:21.635Z,13.70
2022-10-08T23:38:50.054Z,13.70
2022-10-08T23:41:17.932Z,13.60
2022-10-08T23:43:47.015Z,13.50
2022-10-08T23:46:16.504Z,13.50
2022-10-08T23:48:44.617Z,13.50
2022-10-08T23:51:14.992Z,13.40
2022-10-08T23:53:43.524Z,13.20
2022-10-08T23:56:12.438Z,13.30
2022-10-08T23:58:40.722Z,13.50
